createdAt,value
2018-02-03T00:00:05.243Z,80.59
2018-02-03T00:02:36.004Z,79.77
2018-02-03T00:05:06.774Z,79.67
2018-02-03T00:07:37.545Z,79.89
2018-02-03T00:10:08.291Z,80.15
2018-02-03T00:12:39.060Z,80.68
2018-02-03T00:15:09.810Z,80.24
2018-02-03T00:17:40.589Z,79.94
2018-02-03T00:20:11.354Z,79.79
2018-02-03T00:22:42.123Z,80.71
2018-02-03T00:25:12.905Z,80.73
2018-02-03T00:27:43.664Z,81.03
2018-02-03T00:30:14.604Z,80.84
2018-02-03T00:32:45.351Z,81.06
2018-02-03T00:35:16.087Z,80.61
2018-02-03T00:37:46.868Z,80.00
2018-02-03T00:40:17.604Z,80.30
2018-02-03T00:42:48.388Z,80.46
2018-02-03T00:45:19.132Z,80.39
2018-02-03T00:47:49.882Z,80.84
2018-02-03T00:50:20.649Z,80.08
2018-02-03T00:52:51.436Z,80.54
2018-02-03T00:55:22.230Z,80.90
2018-02-03T00:57:52.969Z,80.40
2018-02-03T01:00:23.750Z,81.76
2018-02-03T01:02:54.542Z,80.88
2018-02-03T01:05:25.367Z,80.74
2018-02-03T01:07:56.163Z,80.87
2018-02-03T01:10:26.917Z,80.64
2018-02-03T01:12:57.716Z,80.83
2018-02-03T01:15:28.476Z,80.97
2018-02-03T01:17:59.273Z,81.43
2018-02-03T01:20:30.046Z,81.21
2018-02-03T01:23:00.837Z,82.89
2018-02-03T01:25:31.597Z,81.72
2018-02-03T01:28:02.398Z,81.93
2018-02-03T01:30:33.180Z,81.42
2018-02-03T01:33:03.997Z,81.37
2018-02-03T01:35:34.780Z,80.93
2018-02-03T01:38:05.578Z,81.43
2018-02-03T01:40:36.334Z,81.17
2018-02-03T01:43:07.108Z,81.17
2018-02-03T01:45:37.899Z,80.92
2018-02-03T01:48:08.676Z,81.69
2018-02-03T01:50:39.482Z,82.45
2018-02-03T01:53:10.306Z,81.53
2018-02-03T01:55:41.087Z,81.33
2018-02-03T01:58:11.888Z,81.53
2018-02-03T02:00:42.668Z,82.36
2018-02-03T02:03:13.477Z,81.74
2018-02-03T02:05:44.248Z,81.37
2018-02-03T02:08:15.021Z,81.90
2018-02-03T02:10:45.793Z,82.73
2018-02-03T02:13:16.555Z,82.22
2018-02-03T02:15:47.322Z,82.34
2018-02-03T02:18:18.120Z,83.15
2018-02-03T02:20:48.869Z,82.04
2018-02-03T02:23:19.624Z,82.20
2018-02-03T02:25:50.360Z,82.43
2018-02-03T02:28:28.111Z,81.96
2018-02-03T02:30:58.880Z,82.39
2018-02-03T02:33:29.669Z,82.28
2018-02-03T02:36:00.420Z,82.51
2018-02-03T02:38:31.188Z,82.63
2018-02-03T02:41:01.948Z,82.75
2018-02-03T02:43:32.735Z,82.57
2018-02-03T02:46:03.497Z,82.86
2018-02-03T02:48:34.263Z,82.64
2018-02-03T02:51:05.029Z,82.49
2018-02-03T02:53:35.808Z,83.09
2018-02-03T02:56:06.561Z,83.34
2018-02-03T02:58:37.313Z,83.49
2018-02-03T03:01:08.053Z,83.01
2018-02-03T03:03:38.813Z,82.99
2018-02-03T03:06:09.575Z,83.05
2018-02-03T03:08:40.364Z,83.44
2018-02-03T03:11:11.136Z,83.45
2018-02-03T03:13:41.922Z,83.64
2018-02-03T03:16:12.676Z,84.07
2018-02-03T03:18:43.484Z,83.77
2018-02-03T03:21:14.269Z,83.84
2018-02-03T03:23:45.064Z,83.25
2018-02-03T03:26:15.821Z,83.31
2018-02-03T03:28:46.608Z,83.59
2018-02-03T03:31:17.366Z,84.13
2018-02-03T03:33:48.170Z,84.34
2018-02-03T03:36:18.952Z,83.94
2018-02-03T03:38:49.744Z,84.56
2018-02-03T03:41:20.526Z,84.45
2018-02-03T03:43:51.304Z,83.98
2018-02-03T03:46:22.098Z,83.98
2018-02-03T03:48:52.916Z,84.53
2018-02-03T03:51:23.684Z,84.28
2018-02-03T03:53:54.461Z,84.30
2018-02-03T03:56:25.247Z,84.35
2018-02-03T03:58:56.040Z,83.80
2018-02-03T04:01:26.799Z,83.99
2018-02-03T04:03:57.588Z,83.80
2018-02-03T04:06:28.360Z,83.62
2018-02-03T04:08:59.133Z,83.77
2018-02-03T04:11:29.884Z,83.85
2018-02-03T04:14:00.686Z,83.83
2018-02-03T04:16:31.458Z,84.00
2018-02-03T04:19:02.252Z,84.34
2018-02-03T04:21:33.044Z,83.51
2018-02-03T04:24:03.837Z,83.47
2018-02-03T04:26:34.607Z,83.60
2018-02-03T04:29:05.366Z,83.55
2018-02-03T04:31:36.137Z,83.45
2018-02-03T04:34:06.916Z,83.58
2018-02-03T04:36:37.664Z,83.52
2018-02-03T04:39:08.415Z,83.50
2018-02-03T04:41:39.164Z,83.43
2018-02-03T04:44:09.944Z,83.55
2018-02-03T04:46:40.700Z,83.37
2018-02-03T04:49:11.492Z,82.81
2018-02-03T04:51:42.248Z,82.65
2018-02-03T04:54:13.040Z,83.21
2018-02-03T04:56:43.792Z,83.34
2018-02-03T04:59:14.593Z,83.01
2018-02-03T05:01:45.356Z,83.26
2018-02-03T05:04:16.123Z,83.47
2018-02-03T05:06:46.872Z,83.45
2018-02-03T05:09:17.645Z,83.66
2018-02-03T05:11:48.410Z,83.72
2018-02-03T05:14:19.194Z,84.11
2018-02-03T05:16:49.951Z,83.77
2018-02-03T05:19:20.737Z,84.20
2018-02-03T05:21:51.491Z,84.44
2018-02-03T05:24:22.431Z,84.64
2018-02-03T05:26:53.218Z,85.12
2018-02-03T05:29:24.000Z,85.54
2018-02-03T05:31:54.750Z,85.55
2018-02-03T05:34:25.577Z,85.54
2018-02-03T05:36:56.341Z,85.67
2018-02-03T05:39:27.121Z,85.61
2018-02-03T05:41:57.852Z,86.04
2018-02-03T05:44:29.594Z,86.51
2018-02-03T05:47:00.356Z,86.13
2018-02-03T05:49:31.134Z,85.58
2018-02-03T05:52:01.897Z,84.97
2018-02-03T05:54:32.655Z,85.59
2018-02-03T05:57:03.400Z,85.56
2018-02-03T05:59:34.150Z,85.30
2018-02-03T06:02:04.914Z,86.14
2018-02-03T06:04:35.682Z,85.53
2018-02-03T06:07:06.429Z,85.21
2018-02-03T06:09:37.185Z,84.99
2018-02-03T06:12:07.955Z,84.80
2018-02-03T06:14:38.739Z,84.74
2018-02-03T06:17:09.494Z,85.16
2018-02-03T06:19:40.280Z,84.97
2018-02-03T06:22:11.050Z,84.82
2018-02-03T06:24:41.827Z,84.88
2018-02-03T06:27:12.581Z,84.80
2018-02-03T06:29:43.353Z,85.37
2018-02-03T06:32:14.108Z,85.04
2018-02-03T06:34:44.872Z,84.88
2018-02-03T06:37:15.693Z,84.41
2018-02-03T06:39:46.472Z,85.11
2018-02-03T06:42:17.213Z,85.41
2018-02-03T06:44:47.963Z,85.25
2018-02-03T06:47:18.725Z,84.73
2018-02-03T06:49:49.517Z,85.08
2018-02-03T06:52:20.257Z,85.49
2018-02-03T06:54:51.022Z,85.57
2018-02-03T06:57:21.776Z,86.42
2018-02-03T06:59:52.600Z,86.28
2018-02-03T07:02:23.329Z,86.14
2018-02-03T07:04:54.108Z,85.51
2018-02-03T07:07:24.888Z,85.43
2018-02-03T07:09:55.677Z,85.67
2018-02-03T07:12:26.455Z,86.10
2018-02-03T07:14:57.239Z,86.46
2018-02-03T07:17:28.012Z,86.34
2018-02-03T07:19:58.768Z,86.01
2018-02-03T07:22:29.516Z,86.37
2018-02-03T07:25:00.292Z,86.37
2018-02-03T07:27:31.025Z,87.07
2018-02-03T07:30:01.832Z,87.11
2018-02-03T07:32:32.594Z,87.22
2018-02-03T07:35:03.365Z,86.71
2018-02-03T07:37:34.157Z,85.95
2018-02-03T07:40:04.932Z,86.10
2018-02-03T07:42:35.688Z,85.45
2018-02-03T07:45:06.448Z,86.01
2018-02-03T07:47:37.193Z,85.34
2018-02-03T07:50:07.960Z,85.55
2018-02-03T07:52:38.711Z,85.22
2018-02-03T07:55:09.487Z,85.52
2018-02-03T07:57:40.268Z,85.73
2018-02-03T08:00:11.034Z,85.67
2018-02-03T08:02:41.823Z,85.50
2018-02-03T08:05:12.764Z,85.58
2018-02-03T08:07:43.531Z,85.17
2018-02-03T08:10:14.328Z,85.32
2018-02-03T08:12:45.110Z,84.92
2018-02-03T08:15:15.930Z,85.22
2018-02-03T08:17:46.695Z,85.19
2018-02-03T08:20:17.525Z,85.38
2018-02-03T08:22:48.317Z,85.21
2018-02-03T08:25:19.104Z,84.66
2018-02-03T08:27:49.865Z,85.36
2018-02-03T08:30:20.684Z,84.14
2018-02-03T08:32:51.470Z,84.11
2018-02-03T08:35:22.284Z,83.98
2018-02-03T08:37:53.080Z,84.29
2018-02-03T08:40:23.865Z,83.54
2018-02-03T08:42:54.717Z,82.75
2018-02-03T08:45:25.485Z,82.76
2018-02-03T08:47:56.240Z,82.90
2018-02-03T08:50:27.032Z,81.13
2018-02-03T08:52:57.828Z,81.21
2018-02-03T08:55:28.615Z,81.94
2018-02-03T08:57:59.388Z,81.55
2018-02-03T09:00:30.207Z,81.43
2018-02-03T09:03:00.933Z,81.19
2018-02-03T09:05:31.708Z,82.54
2018-02-03T09:08:02.468Z,81.82
2018-02-03T09:10:33.237Z,82.54
2018-02-03T09:13:03.993Z,82.50
2018-02-03T09:15:34.733Z,82.97
2018-02-03T09:18:05.491Z,82.83
2018-02-03T09:20:36.263Z,81.35
2018-02-03T09:23:07.016Z,80.14
2018-02-03T09:25:37.767Z,80.82
2018-02-03T09:28:08.513Z,79.81
2018-02-03T09:30:39.292Z,79.14
2018-02-03T09:33:10.460Z,78.89
2018-02-03T09:35:41.640Z,78.40
2018-02-03T09:38:12.405Z,77.27
2018-02-03T09:40:43.242Z,76.60
2018-02-03T09:43:13.984Z,77.74
2018-02-03T09:45:44.772Z,79.10
2018-02-03T09:48:15.528Z,76.91
2018-02-03T09:50:46.316Z,76.50
2018-02-03T09:53:17.101Z,77.47
2018-02-03T09:55:47.873Z,73.93
2018-02-03T09:58:18.657Z,74.39
2018-02-03T10:00:49.426Z,73.02
2018-02-03T10:03:20.209Z,72.56
2018-02-03T10:05:50.976Z,72.33
2018-02-03T10:08:21.832Z,71.64
2018-02-03T10:10:52.594Z,70.77
2018-02-03T10:13:23.336Z,71.15
2018-02-03T10:15:54.131Z,69.12
2018-02-03T10:18:24.893Z,70.27
2018-02-03T10:20:55.691Z,69.93
2018-02-03T10:23:26.454Z,70.15
2018-02-03T10:25:57.221Z,70.21
2018-02-03T10:28:27.960Z,71.74
2018-02-03T10:30:58.728Z,69.46
2018-02-03T10:33:29.478Z,68.69
2018-02-03T10:36:00.254Z,68.58
2018-02-03T10:38:31.000Z,69.07
2018-02-03T10:41:01.802Z,70.13
2018-02-03T10:43:32.560Z,69.69
2018-02-03T10:46:03.325Z,70.60
2018-02-03T10:48:34.113Z,68.93
2018-02-03T10:51:04.901Z,69.84
2018-02-03T10:53:35.642Z,69.76
2018-02-03T10:56:06.409Z,69.22
2018-02-03T10:58:37.184Z,69.43
2018-02-03T11:01:07.956Z,71.23
2018-02-03T11:03:38.708Z,70.23
2018-02-03T11:06:09.479Z,70.25
2018-02-03T11:08:40.256Z,70.35
2018-02-03T11:11:11.013Z,69.98
2018-02-03T11:13:41.764Z,69.73
2018-02-03T11:16:12.528Z,70.04
2018-02-03T11:18:43.308Z,69.31
2018-02-03T11:21:14.068Z,69.32
2018-02-03T11:23:44.804Z,70.14
2018-02-03T11:26:15.596Z,69.40
2018-02-03T11:28:46.354Z,71.17
2018-02-03T11:31:17.124Z,69.67
2018-02-03T11:33:47.856Z,69.16
2018-02-03T11:36:18.641Z,69.07
2018-02-03T11:38:49.403Z,68.52
2018-02-03T11:41:20.196Z,70.89
2018-02-03T11:43:50.947Z,69.04
2018-02-03T11:46:21.719Z,69.07
2018-02-03T11:48:52.467Z,68.16
2018-02-03T11:51:23.228Z,68.54
2018-02-03T11:53:53.980Z,67.49
2018-02-03T11:56:24.760Z,68.46
2018-02-03T11:58:55.509Z,67.64
2018-02-03T12:01:26.268Z,67.63
2018-02-03T12:03:57.004Z,66.91
2018-02-03T12:06:27.785Z,65.47
2018-02-03T12:08:58.534Z,67.82
2018-02-03T12:11:29.312Z,66.70
2018-02-03T12:14:00.052Z,67.17
2018-02-03T12:16:30.838Z,66.44
2018-02-03T12:19:01.584Z,67.52
2018-02-03T12:21:32.351Z,67.29
2018-02-03T12:24:03.144Z,67.22
2018-02-03T12:26:33.917Z,68.35
2018-02-03T12:29:05.735Z,66.82
2018-02-03T12:31:37.336Z,66.88
2018-02-03T12:34:08.090Z,68.60
2018-02-03T12:36:38.838Z,68.63
2018-02-03T12:39:09.750Z,69.65
2018-02-03T12:41:40.511Z,68.60
2018-02-03T12:44:11.272Z,68.81
2018-02-03T12:46:42.045Z,69.13
2018-02-03T12:49:12.819Z,69.09
2018-02-03T12:51:43.572Z,67.20
2018-02-03T12:54:14.338Z,69.19
2018-02-03T12:56:45.096Z,68.68
2018-02-03T12:59:15.874Z,69.55
2018-02-03T13:01:46.644Z,68.80
2018-02-03T13:04:17.424Z,70.49
2018-02-03T13:06:48.224Z,70.42
2018-02-03T13:09:19.009Z,70.71
2018-02-03T13:11:49.792Z,71.19
2018-02-03T13:14:20.596Z,71.12
2018-02-03T13:16:51.369Z,75.38
2018-02-03T13:19:22.166Z,76.84
2018-02-03T13:21:52.943Z,78.26
2018-02-03T13:24:23.752Z,78.92
2018-02-03T13:26:54.517Z,77.25
2018-02-03T13:29:25.312Z,77.69
2018-02-03T13:31:56.091Z,76.27
2018-02-03T13:34:26.871Z,76.96
2018-02-03T13:36:57.651Z,77.41
2018-02-03T13:39:28.448Z,78.04
2018-02-03T13:41:59.228Z,80.03
2018-02-03T13:44:30.027Z,79.69
2018-02-03T13:47:00.784Z,78.47
2018-02-03T13:49:31.574Z,80.59
2018-02-03T13:52:02.353Z,78.65
2018-02-03T13:54:33.147Z,77.36
2018-02-03T13:57:03.910Z,77.34
2018-02-03T13:59:34.711Z,76.35
2018-02-03T14:02:05.492Z,75.36
2018-02-03T14:04:36.884Z,74.24
2018-02-03T14:07:07.683Z,73.43
2018-02-03T14:09:38.465Z,72.98
2018-02-03T14:12:09.245Z,72.88
2018-02-03T14:14:40.045Z,73.06
2018-02-03T14:17:10.814Z,73.71
2018-02-03T14:19:41.603Z,75.12
2018-02-03T14:22:12.385Z,74.35
2018-02-03T14:24:47.177Z,74.64
2018-02-03T14:27:17.940Z,75.00
2018-02-03T14:29:48.730Z,74.41
2018-02-03T14:32:19.523Z,74.07
2018-02-03T14:34:50.321Z,75.91
2018-02-03T14:37:21.095Z,74.51
2018-02-03T14:39:51.873Z,74.70
2018-02-03T14:42:22.665Z,75.57
2018-02-03T14:44:53.445Z,76.88
2018-02-03T14:47:24.282Z,75.72
2018-02-03T14:49:55.051Z,74.29
2018-02-03T14:52:25.893Z,73.63
2018-02-03T14:54:56.655Z,73.62
2018-02-03T14:57:27.413Z,74.44
2018-02-03T14:59:58.170Z,75.55
2018-02-03T15:02:28.962Z,76.72
2018-02-03T15:05:01.735Z,76.98
2018-02-03T15:07:32.557Z,77.52
2018-02-03T15:10:03.955Z,77.47
2018-02-03T15:12:34.737Z,78.32
2018-02-03T15:15:05.501Z,78.34
2018-02-03T15:17:36.297Z,79.09
2018-02-03T15:20:07.066Z,78.84
2018-02-03T15:22:37.842Z,77.96
2018-02-03T15:25:08.609Z,77.39
2018-02-03T15:27:39.428Z,77.38
2018-02-03T15:30:10.195Z,79.76
2018-02-03T15:32:40.999Z,78.18
2018-02-03T15:35:11.774Z,77.99
2018-02-03T15:37:42.558Z,78.70
2018-02-03T15:40:13.335Z,79.53
2018-02-03T15:42:44.132Z,79.68
2018-02-03T15:45:14.914Z,81.10
2018-02-03T15:47:45.711Z,80.99
2018-02-03T15:50:16.489Z,79.45
2018-02-03T15:52:47.361Z,79.29
2018-02-03T15:55:18.194Z,78.66
2018-02-03T15:57:49.028Z,78.24
2018-02-03T16:00:19.852Z,79.06
2018-02-03T16:02:50.706Z,79.51
2018-02-03T16:05:21.506Z,78.34
2018-02-03T16:07:52.352Z,78.19
2018-02-03T16:10:23.079Z,79.51
2018-02-03T16:12:53.937Z,76.93
2018-02-03T16:15:24.762Z,77.50
2018-02-03T16:17:55.523Z,76.63
2018-02-03T16:20:26.284Z,76.71
2018-02-03T16:22:57.044Z,75.83
2018-02-03T16:25:27.780Z,76.66
2018-02-03T16:27:58.573Z,77.16
2018-02-03T16:30:29.318Z,76.92
2018-02-03T16:33:00.089Z,76.89
2018-02-03T16:35:30.856Z,79.28
2018-02-03T16:38:01.625Z,78.11
2018-02-03T16:40:32.400Z,77.16
2018-02-03T16:43:03.161Z,78.21
2018-02-03T16:45:33.926Z,77.98
2018-02-03T16:48:04.713Z,78.63
2018-02-03T16:50:35.457Z,78.51
2018-02-03T16:53:06.237Z,78.35
2018-02-03T16:55:36.987Z,79.33
2018-02-03T16:58:07.824Z,79.15
2018-02-03T17:00:38.577Z,78.54
2018-02-03T17:03:09.336Z,79.17
2018-02-03T17:05:40.155Z,79.81
2018-02-03T17:08:10.953Z,79.30
2018-02-03T17:10:41.733Z,80.99
2018-02-03T17:13:12.527Z,80.37
2018-02-03T17:15:43.281Z,79.12
2018-02-03T17:18:14.077Z,79.31
2018-02-03T17:20:44.861Z,80.06
2018-02-03T17:23:15.672Z,79.59
2018-02-03T17:25:46.437Z,78.95
2018-02-03T17:28:17.216Z,79.30
2018-02-03T17:30:47.973Z,78.99
2018-02-03T17:33:18.766Z,79.93
2018-02-03T17:35:49.540Z,80.21
2018-02-03T17:38:26.563Z,79.13
2018-02-03T17:40:57.356Z,80.13
2018-02-03T17:43:28.153Z,80.30
2018-02-03T17:46:05.057Z,79.67
2018-02-03T17:48:35.861Z,79.56
2018-02-03T17:51:06.624Z,80.00
2018-02-03T17:53:37.421Z,80.77
2018-02-03T17:56:14.359Z,79.96
2018-02-03T17:58:45.155Z,80.22
2018-02-03T18:01:15.926Z,79.97
2018-02-03T18:03:46.751Z,79.98
2018-02-03T18:06:17.589Z,80.16
2018-02-03T18:08:48.396Z,80.45
2018-02-03T18:11:19.181Z,79.46
2018-02-03T18:13:49.977Z,79.76
2018-02-03T18:16:20.748Z,80.18
2018-02-03T18:18:51.534Z,80.55
2018-02-03T18:21:22.333Z,79.89
2018-02-03T18:23:53.113Z,80.81
2018-02-03T18:26:23.886Z,78.83
2018-02-03T18:28:54.697Z,79.24
2018-02-03T18:31:25.484Z,80.59
2018-02-03T18:33:56.286Z,80.07
2018-02-03T18:36:27.055Z,81.25
2018-02-03T18:38:58.152Z,80.31
2018-02-03T18:41:28.921Z,80.02
2018-02-03T18:43:59.675Z,80.18
2018-02-03T18:46:30.435Z,80.60
2018-02-03T18:49:01.228Z,80.34
2018-02-03T18:51:31.984Z,81.15
2018-02-03T18:54:02.751Z,80.23
2018-02-03T18:56:33.531Z,80.79
2018-02-03T18:59:04.452Z,80.79
2018-02-03T19:01:36.264Z,80.86
2018-02-03T19:04:07.052Z,80.29
2018-02-03T19:06:37.816Z,79.77
2018-02-03T19:09:15.728Z,79.68
2018-02-03T19:11:46.553Z,80.06
2018-02-03T19:14:17.317Z,80.57
2018-02-03T19:16:48.076Z,79.80
2018-02-03T19:19:18.939Z,80.37
2018-02-03T19:21:49.684Z,79.75
2018-02-03T19:24:20.549Z,79.59
2018-02-03T19:26:51.305Z,79.54
2018-02-03T19:29:22.090Z,79.29
2018-02-03T19:31:52.834Z,79.71
2018-02-03T19:34:23.613Z,80.55
2018-02-03T19:36:54.404Z,80.65
2018-02-03T19:39:25.180Z,80.04
2018-02-03T19:41:55.993Z,80.14
2018-02-03T19:44:26.822Z,79.53
2018-02-03T19:46:57.655Z,79.73
2018-02-03T19:49:28.486Z,80.46
2018-02-03T19:51:59.296Z,80.71
2018-02-03T19:54:30.102Z,80.98
2018-02-03T19:57:00.890Z,80.42
2018-02-03T19:59:31.682Z,80.32
2018-02-03T20:02:02.577Z,80.42
2018-02-03T20:04:33.398Z,80.59
2018-02-03T20:07:04.174Z,81.02
2018-02-03T20:09:34.998Z,80.79
2018-02-03T20:12:05.812Z,80.67
2018-02-03T20:14:36.608Z,81.74
2018-02-03T20:17:07.417Z,81.23
2018-02-03T20:19:38.316Z,81.12
2018-02-03T20:22:09.104Z,80.62
2018-02-03T20:24:39.949Z,80.91
2018-02-03T20:27:10.717Z,81.15
2018-02-03T20:29:41.498Z,80.47
2018-02-03T20:32:12.384Z,80.93
2018-02-03T20:34:43.156Z,80.72
2018-02-03T20:37:13.916Z,81.52
2018-02-03T20:39:44.694Z,80.45
2018-02-03T20:42:15.504Z,79.74
2018-02-03T20:44:46.269Z,80.21
2018-02-03T20:47:17.154Z,78.98
2018-02-03T20:49:47.991Z,79.47
2018-02-03T20:52:18.878Z,79.09
2018-02-03T20:54:49.649Z,79.17
2018-02-03T20:57:20.473Z,79.48
2018-02-03T20:59:51.305Z,79.47
2018-02-03T21:02:22.120Z,79.15
2018-02-03T21:04:52.897Z,79.47
2018-02-03T21:07:23.676Z,79.62
2018-02-03T21:09:54.460Z,79.11
2018-02-03T21:12:25.281Z,79.77
2018-02-03T21:14:56.145Z,79.79
2018-02-03T21:17:26.920Z,80.23
2018-02-03T21:19:57.709Z,79.88
2018-02-03T21:22:28.472Z,80.04
2018-02-03T21:24:59.439Z,80.25
2018-02-03T21:27:30.265Z,80.37
2018-02-03T21:30:01.034Z,79.91
2018-02-03T21:32:31.816Z,80.13
2018-02-03T21:35:02.731Z,80.40
2018-02-03T21:37:33.537Z,80.15
2018-02-03T21:40:04.396Z,80.47
2018-02-03T21:42:35.232Z,80.47
2018-02-03T21:45:07.089Z,79.93
2018-02-03T21:47:37.875Z,80.15
2018-02-03T21:50:08.727Z,79.88
2018-02-03T21:52:39.538Z,79.66
2018-02-03T21:55:10.368Z,80.19
2018-02-03T21:57:41.135Z,80.51
2018-02-03T22:00:12.001Z,80.75
2018-02-03T22:02:42.878Z,80.57
2018-02-03T22:05:13.692Z,79.59
2018-02-03T22:07:44.608Z,80.06
2018-02-03T22:10:15.463Z,80.53
2018-02-03T22:12:47.290Z,80.81
2018-02-03T22:15:18.049Z,80.71
2018-02-03T22:17:48.850Z,80.25
2018-02-03T22:20:19.709Z,81.37
2018-02-03T22:22:50.529Z,80.60
2018-02-03T22:25:21.359Z,80.48
2018-02-03T22:27:52.227Z,81.53
2018-02-03T22:30:23.021Z,81.78
2018-02-03T22:32:53.797Z,81.12
2018-02-03T22:38:23.796Z,82.69
2018-02-03T22:40:54.587Z,81.26
2018-02-03T22:43:25.360Z,82.93
2018-02-03T22:45:56.139Z,82.73
2018-02-03T22:48:26.960Z,82.25
2018-02-03T22:50:57.727Z,82.08
2018-02-03T22:53:28.499Z,81.56
2018-02-03T22:55:59.261Z,81.84
2018-02-03T22:58:30.028Z,82.63
2018-02-03T23:01:07.085Z,82.12
2018-02-03T23:03:37.820Z,82.13
2018-02-03T23:06:08.612Z,81.16
2018-02-03T23:08:39.381Z,81.14
2018-02-03T23:11:10.137Z,81.61
2018-02-03T23:13:40.920Z,81.91
2018-02-03T23:16:11.680Z,82.62
2018-02-03T23:18:42.533Z,82.84
2018-02-03T23:21:13.248Z,83.33
2018-02-03T23:23:44.007Z,82.31
2018-02-03T23:26:14.744Z,82.56
2018-02-03T23:28:45.481Z,82.15
2018-02-03T23:31:16.216Z,83.13
2018-02-03T23:33:46.962Z,82.99
2018-02-03T23:36:21.736Z,83.13
2018-02-03T23:38:52.476Z,83.17
2018-02-03T23:41:23.262Z,83.62
2018-02-03T23:43:54.016Z,83.97
2018-02-03T23:46:24.776Z,83.59
2018-02-03T23:48:55.521Z,82.94
2018-02-03T23:51:26.260Z,83.01
2018-02-03T23:53:57.018Z,82.81
2018-02-03T23:56:27.796Z,82.79
2018-02-03T23:58:58.563Z,82.82
